Norris Rancho Marino Reserve, California Weather observations

Data are for 10 minute period ending at time listed.
 Day   Time   Solar   Ave.   Ave.  Ave.  Vector  Max.   Baro.   Total    
  of    of     Rad.   Air    Rel.  Wind   Wind   Wind  Press.  Precip.   
Year   Day            Temp.  Hum.  Speed  Dir.   Gust                    
2016   (PST)  Kw/m2    F      %     mph   deg.    mph    mb.     in.     
-------------------------------------------------------------------------
 124    2:00   0.00   53.3    94    3.5   283     4.7   1011.9    0.00 
 124    2:10   0.00   53.3    94    4.6   286     7.5   1011.9    0.00 
 124    2:20   0.00   53.2    94    5.2   294     7.8   1011.9    0.00 
 124    2:30   0.00   53.1    94    4.2   302     8.0   1011.9    0.00 
 124    2:40   0.00   52.9    94    5.0   314     6.9   1011.6    0.00 
 124    2:50   0.00   52.8    95    3.8   339     6.1   1011.6    0.00 
 124    3:00   0.00   52.7    95    2.8    20     4.6   1011.5    0.00 
 124    3:10   0.00   52.7    95    2.6   337     3.7   1011.5    0.00 
 124    3:20   0.00   52.7    95    2.5   337     3.7   1011.4    0.00 
 124    3:30   0.00   52.7    95    2.8   288     4.5   1011.3    0.00 
 124    3:40   0.00   52.6    95    3.3   277     4.7   1011.1    0.00 
 124    3:50   0.00   52.6    95    3.5   265     5.3   1011.0    0.00 
 124    4:00   0.00   52.4    95    4.6   256     6.1   1011.0    0.00 
 124    4:10   0.00   52.4    95    5.5   262     7.8   1011.0    0.00 
 124    4:20   0.00   52.2    96    5.0   285     7.5   1011.1    0.00 
 124    4:30   0.00   52.0    96    5.9   278     7.9   1011.2    0.00 
 124    4:40   0.00   51.9    96    4.5   292     6.6   1011.3    0.00 
 124    4:50   0.00   51.8    96    4.1   285     6.6   1011.5    0.00 
 124    5:00   0.00   51.8    96    5.8   308     9.2   1011.4    0.00 
 124    5:10   0.00   51.7    96    4.2   304     6.0   1011.5    0.00 
 124    5:20   0.00   51.6    96    6.1   286     8.4   1011.4    0.00 
 124    5:30   0.01   51.6    96    4.0   311     6.4   1011.5    0.00 
 124    5:40   0.01   51.7    96    5.3   311     7.9   1011.7    0.00 
 124    5:50   0.02   51.7    96    6.1   315     8.8   1011.6    0.00 
 124    6:00   0.02   51.8    96    5.5   308     8.3   1011.9    0.00 
 124    6:10   0.04   51.9    96    6.5   312     9.9   1011.8    0.00 
 124    6:20   0.05   52.1    96    5.7   315     8.6   1011.9    0.00 
 124    6:30   0.07   52.1    96    4.8   312     8.6   1011.9    0.00 
 124    6:40   0.09   52.2    96    4.3   297     6.9   1012.0    0.00 
 124    6:50   0.11   52.4    96    5.3   287     7.9   1012.1    0.00 
 124    7:00   0.17   52.8    96    5.3   294     7.9   1012.2    0.00 
 124    7:10   0.23   53.0    96    6.8   285     9.2   1012.2    0.00 
 124    7:20   0.27   53.1    96    7.9   287    11.0   1012.5    0.00 
 124    7:30   0.18   52.7    95    8.9   287    11.1   1012.8    0.00 
 124    7:40   0.19   52.8    95    9.2   286    11.2   1012.9    0.00 
 124    7:50   0.19   52.8    95    8.3   290    10.4   1012.9    0.00 
 124    8:00   0.25   53.1    95    8.1   288    10.4   1012.8    0.00 
 124    8:10   0.19   52.8    94    8.4   287    10.3   1012.8    0.00 
 124    8:20   0.21   53.0    94    6.9   287     8.8   1012.7    0.00 
 124    8:30   0.36   53.2    94    7.6   279     9.5   1012.5    0.00 
 124    8:40   0.39   53.8    94    7.2   278     9.6   1012.6    0.00 
 124    8:50   0.30   53.4    94    6.3   280     7.8   1012.6    0.00 
 124    9:00   0.24   53.2    94    6.4   275     8.5   1012.7    0.00 
 124    9:10   0.25   53.0    94    5.7   288     7.2   1012.7    0.00 
 124    9:20   0.24   53.1    94    6.2   286     8.2   1012.9    0.00 
 124    9:30   0.25   53.3    94    5.8   287     7.3   1013.0    0.00 
 124    9:40   0.30   53.4    94    5.4   289     7.2   1012.9    0.00 
 124    9:50   0.43   53.8    94    4.9   269     6.4   1012.7    0.00 
 124   10:00   0.48   54.4    93    4.8   247     6.4   1012.7    0.00 
 124   10:10   0.44   54.6    92    3.7   239     5.9   1012.6    0.00 
 124   10:20   0.41   54.4    92    3.5   214     4.9   1012.8    0.00 
 124   10:30   0.34   54.7    92    6.0   203     7.6   1013.2    0.00 
 124   10:40   0.40   54.6    92    3.6   196     7.1   1013.2    0.00 
 124   10:50   0.44   54.7    92    2.8   220     4.1   1013.3    0.00 
 124   11:00   0.41   55.1    92    3.3   238     6.8   1013.6    0.00 
 124   11:10   0.38   55.2    91    3.5   261     5.6   1013.7    0.00 
 124   11:20   0.49   55.8    90    2.9   237     5.0   1013.5    0.00 
 124   11:30   0.46   56.2    89    2.9   268     5.2   1013.5    0.00 
 124   11:40   0.58   56.5    89    3.3   235     5.8   1013.4    0.00 
 124   11:50   0.58   57.5    87    2.5   225     4.5   1013.1    0.00 
 124   12:00   0.55   57.5    86    3.0   221     4.8   1012.8    0.00 
 124   12:10   0.54   57.1    86    3.6   229     5.8   1012.6    0.00 
 124   12:20   0.52   57.1    86    3.3   234     5.6   1012.6    0.00 
 124   12:30   0.30   56.5    87    5.5   251    10.4   1012.8    0.00 
 124   12:40   0.24   55.6    89    8.2   267    10.7   1013.1    0.00 
 124   12:50   0.33   55.4    90    6.8   291     9.5   1013.0    0.00 
 124   13:00   0.54   55.6    90    6.6   285    10.1   1012.9    0.00 
 124   13:10   0.45   56.2    89    6.9   280    10.5   1013.0    0.00 
 124   13:20   0.34   55.6    89    6.7   284    10.8   1012.7    0.00 
 124   13:30   0.33   55.6    90    5.8   286     8.3   1012.7    0.00 
 124   13:40   0.40   56.0    90    6.3   288     8.8   1012.6    0.00 
 124   13:50   0.34   55.7    90    7.2   277     9.1   1012.5    0.00 
 124   14:00   0.39   56.0    89    6.0   277     7.7   1012.4    0.00 
 124   14:10   0.54   56.4    88    7.6   285     9.9   1012.1    0.00 
 124   14:20   0.55   56.9    87    7.3   279     9.3   1012.1    0.00 
 124   14:30   0.47   57.0    87    8.3   270    11.2   1012.0    0.00 
 124   14:40   0.45   56.9    87    7.1   287     9.6   1011.9    0.00 
 124   14:50   0.57   56.7    87    6.7   271     8.6   1011.8    0.00 
 124   15:00   0.63   56.9    87    6.3   264     8.1   1011.8    0.00 
 124   15:10   0.57   57.3    86    7.1   280     9.9   1011.7    0.00 
 124   15:20   0.59   57.0    87    8.0   284    10.8   1011.5    0.00 
 124   15:30   0.53   57.1    87    9.2   283    11.5   1011.6    0.00 
 124   15:40   0.38   56.8    87    8.6   281    11.6   1011.5    0.00 
 124   15:50   0.33   56.1    88    8.6   290    11.4   1011.1    0.00 
 124   16:00   0.48   56.6    88    8.0   284    10.4   1011.2    0.00 
 124   16:10   0.53   56.9    87    8.2   284    10.8   1011.2    0.00 
 124   16:20   0.43   56.7    87    6.1   284     8.6   1011.2    0.00 
 124   16:30   0.48   56.8    87    7.4   290     9.6   1011.1    0.00 
 124   16:40   0.22   55.9    88    7.5   290     9.3   1011.1    0.00 
 124   16:50   0.22   56.1    88    8.1   289    11.4   1011.1    0.00 
 124   17:00   0.17   55.5    89    8.6   289    10.7   1011.4    0.00 
 124   17:10   0.17   55.3    90    8.8   291    11.5   1011.2    0.00 
 124   17:20   0.18   55.2    90    8.9   292    11.5   1011.2    0.00 
 124   17:30   0.16   55.5    90    7.7   289    10.0   1011.3    0.00 
 124   17:40   0.10   55.1    90    9.0   292    11.8   1011.2    0.00 
 124   17:50   0.12   55.2    90    8.1   296    11.0   1011.2    0.00 
 124   18:00   0.09   55.0    90    8.5   312    13.6   1010.9    0.00 
 124   18:10   0.08   54.9    90    7.0   312    11.8   1010.7    0.00 
 124   18:20   0.05   54.9    90    5.3   317     9.0   1010.6    0.00 
 124   18:30   0.03   54.7    90    3.4   296     6.3   1010.5    0.00 
 124   18:40   0.02   54.1    91    5.4   281     6.9   1010.5    0.00 
 124   18:50   0.01   53.7    92    3.8   306     5.9   1010.4    0.00 
 124   19:00   0.01   53.5    92    2.8   308     3.4   1010.2    0.00 
 124   19:10   0.00   53.2    92    2.5   333     3.6   1010.2    0.00 
 124   19:20   0.00   52.9    93    1.0    30     2.0   1010.1    0.00 
 124   19:30   0.00   52.5    92    0.2    59     2.0   1010.3    0.00 
 124   19:40   0.00   51.9    92    2.1    67     3.4   1010.3    0.00 
 124   19:50   0.00   51.7    93    2.4    56     3.1   1010.1    0.00 
 124   20:00   0.00   51.7    93    2.0    70     3.1   1010.1    0.00 
 124   20:10   0.00   52.3    93    1.2   131     2.2   1010.3    0.00 
 124   20:20   0.00   52.2    93    2.3   108     4.7   1010.3    0.00 
 124   20:30   0.00   51.9    93    2.1    97     4.1   1010.4    0.00 
 124   20:40   0.00   52.8    93    1.0    98     2.3   1010.6    0.00 
 124   20:50   0.00   52.5    93    1.0   105     2.9   1010.7    0.00 
 124   21:00   0.00   52.4    93    0.9   191     3.2   1010.7    0.00 
 124   21:10   0.00   52.5    94    0.4    25     1.4   1010.9    0.00 
 124   21:20   0.00   53.4    94    1.9   192     4.9   1011.0    0.00 
 124   21:30   0.00   54.0    94    1.4   214     3.9   1011.0    0.00 
 124   21:40   0.00   53.8    94    0.1   360     1.1   1010.9    0.00 
 124   21:50   0.00   53.7    94    1.1   172     2.2   1011.0    0.00 
 124   22:00   0.00   54.0    94    2.2   166     3.9   1010.8    0.00 
 124   22:10   0.00   53.6    94    2.4    98     3.9   1010.7    0.00 
 124   22:20   0.00   53.5    94    2.9   140     5.0   1010.6    0.00 
 124   22:30   0.00   53.6    94    2.6   151     4.2   1010.7    0.00 
 124   22:40   0.00   53.7    94    2.3   152     3.9   1010.7    0.00 
 124   22:50   0.00   53.5    94    3.1    95     4.5   1010.7    0.00 
 124   23:00   0.00   53.4    94    3.0    73     4.8   1010.8    0.00 
 124   23:10   0.00   53.0    94    2.8    60     4.2   1010.8    0.00 
 124   23:20   0.00   52.8    94    0.9   104     2.4   1010.8    0.00 
 124   23:30   0.00   52.7    94    1.9    46     4.5   1010.7    0.00 
 124   23:40   0.00   53.0    94    2.9    58     6.1   1010.7    0.00 
 124   23:50   0.00   53.1    94    0.9    67     3.2   1010.8    0.00 
 125    0:00   0.00   53.2    94    0.8    68     1.6   1010.8    0.00 
 125    0:10   0.00   53.3    94    1.1   241     2.2   1010.9    0.00 
 125    0:20   0.00   53.6    95    0.3   230     1.1   1010.9    0.00 
 125    0:30   0.00   53.7    95    0.2    77     1.7   1010.9    0.00 
 125    0:40   0.00   53.6    95    1.6    56     2.6   1010.7    0.00 
 125    0:50   0.00   53.7    95    2.1    45     3.5   1010.5    0.00 
 125    1:00   0.00   53.5    95    2.4    61     4.7   1010.3    0.00 
 125    1:10   0.00   53.3    95    3.2    65     4.7   1010.1    0.00 
 125    1:20   0.00   53.4    95    0.5   155     2.2   1010.1    0.00 
 125    1:30   0.00   53.5    95    1.6   174     2.9   1010.1    0.00 
 125    1:40   0.00   53.7    95    1.6   153     2.9   1010.0    0.00 
 125    1:50   0.00   53.7    95    1.6   138     2.7   1009.9    0.00 

Return to Norris Rancho Marino Reserve graphs page.


Western Regional Climate Center,wrcc@dri.edu